메인 페이지
METAR-TAF:

METAR-TAF

공항 :

서울공항

성남, 대한민국

위도: 37-26N, 경도: 127-07E, 고도: 20m

현재 날씨관측

예보는 53분 전, 08:00시(UTC)에 발표되었습니다.
남남동7kt
온도 22°C
습도 53%
기압 1017 hPa
시정 10km 이상
고도 5000ft 상공 구름 조금
고도 20000ft 상공 구름 많음

METAR: RKSM 210800Z 16007KT 9999 FEW050 BKN200 22/12 A3003

시각: 17:53 (08:53 UTC)

예보

예보는 3 시간 53분 전, 05:00시(UTC)에 발표되었습니다.
예보 대상 시간: 21일 06시부터 22일 12시까지 (UTC)
남남동6kt
시정 10km 이상
고도 3000ft 상공 구름 보통
고도 20000ft 상공 구름 많음
전환 중
21일 17시부터 21일 18시까지 (UTC)
6kt
시정 10km 이상
고도 3000ft 상공 구름 많음
고도 20000ft 상공 구름 많음
전환 중
22일 07시부터 22일 08시까지 (UTC)
남남서6kt
시정: 9000m
고도 3000ft 상공 구름 많음
고도 10000ft 상공 흐림
약한비, 박무
전환 중
22일 11시부터 22일 12시까지 (UTC)
남남서6kt
시정: 4800m
고도 1500ft 상공 구름 보통
고도 3000ft 상공 흐림
약한비, 박무

TAF: RKSM 210500Z 2106/2212 15006KT 9999 SCT030 BKN200 BECMG 2117/2118 18006KT 9999 BKN030 BKN200 BECMG 2207/2208 21006KT 9000 -RA BR BKN030 OVC100 BECMG 2211/2212 21006KT 4800 -RA BR SCT015 OVC030 TX24/2106Z TN16/2121Z

4,000개 이상의 공항 관측 자료 및 예보 (METAR 및 TAF 보고).

지도상에서 검색 가능한 기상관측소가 노란 점과 빨간 점으로 표시되어 있습니다.

기상관측소 명을 보려면 표시 위로 마우스를 이동하세요.

날씨 관측과 예보를 보려면 클릭하세요.

지도 변경 : 확대하려면 엑스 표시가 있는 녹색 버튼, 축소하려면 빼기 표시가 있는 녹색 버튼, 다음 페이지의 지도를 보려면 녹색 화살표를 클릭하세요.


METAR-TAF: